Time;durP1;ratioP1;P1;durP2;ratioP2;P2;SDS_P1;SDS_P2;PMS_P1;PMS_P2;Temp;Humidity;BMP_temperature;BMP_pressure;BME280_temperature;BME280_humidity;BME280_pressure;Samples;Min_cycle;Max_cycle;Signal;HPM_P1;HPM_P2
2023/09/14 00:00:20;;;;;;;2.97;1.80;;;13.10;99.90;;;;;;6162805;22;89907;-69
2023/09/14 00:02:45;;;;;;;8.45;2.25;;;13.10;99.90;;;;;;6138357;22;91668;-69
2023/09/14 00:05:11;;;;;;;3.95;1.80;;;13.10;99.90;;;;;;6138890;22;87859;-72
2023/09/14 00:07:37;;;;;;;3.38;1.80;;;13.10;99.90;;;;;;6139368;22;87839;-70
2023/09/14 00:10:04;;;;;;;5.53;2.28;;;13.00;99.90;;;;;;6139991;22;87377;-68
2023/09/14 00:12:29;;;;;;;8.88;2.30;;;13.00;99.90;;;;;;6139457;22;91421;-71
2023/09/14 00:14:55;;;;;;;4.15;1.98;;;13.00;99.90;;;;;;6141518;22;87648;-71
2023/09/14 00:17:21;;;;;;;6.22;1.95;;;13.00;99.90;;;;;;6141844;22;86792;-71
2023/09/14 00:19:46;;;;;;;6.85;2.30;;;13.00;99.90;;;;;;6140560;22;87585;-70
2023/09/14 00:22:12;;;;;;;4.13;2.08;;;12.90;99.90;;;;;;6140505;22;87725;-71
2023/09/14 00:24:37;;;;;;;4.80;2.10;;;12.90;99.90;;;;;;6139232;22;90970;-68
2023/09/14 00:27:03;;;;;;;4.93;1.98;;;12.90;99.90;;;;;;6112800;22;87452;-69
2023/09/14 00:29:29;;;;;;;4.60;2.00;;;12.90;99.90;;;;;;6109580;23;90047;-70
2023/09/14 00:31:55;;;;;;;4.20;1.80;;;12.90;99.90;;;;;;6120255;22;91643;-70
2023/09/14 00:34:21;;;;;;;5.88;1.80;;;12.80;99.90;;;;;;6138658;22;87760;-72
2023/09/14 00:36:46;;;;;;;3.83;1.75;;;12.80;99.90;;;;;;6140620;22;87401;-69
2023/09/14 00:39:12;;;;;;;3.00;1.88;;;12.80;99.90;;;;;;6139914;22;87794;-68
2023/09/14 00:41:38;;;;;;;7.28;2.63;;;12.70;99.90;;;;;;6140896;22;87330;-71
2023/09/14 00:44:04;;;;;;;6.85;2.40;;;12.70;99.90;;;;;;6139922;22;94387;-71
2023/09/14 00:46:30;;;;;;;6.78;2.28;;;12.70;99.90;;;;;;6139241;22;87647;-69
2023/09/14 00:49:00;;;;;;;7.65;1.95;;;12.70;99.90;;;;;;6140905;22;88094;-69
2023/09/14 00:51:34;;;;;;;5.15;2.03;;;12.70;99.90;;;;;;6140729;22;92495;-69
2023/09/14 00:54:03;;;;;;;5.82;2.35;;;12.60;99.90;;;;;;6139400;22;87674;-69
2023/09/14 00:56:29;;;;;;;4.93;1.88;;;12.60;99.90;;;;;;6141020;22;87454;-68
2023/09/14 00:58:55;;;;;;;6.07;2.13;;;12.60;99.90;;;;;;6140555;22;87747;-68
2023/09/14 01:01:22;;;;;;;5.32;1.52;;;12.50;99.90;;;;;;6140075;22;88115;-70
2023/09/14 01:03:48;;;;;;;5.05;1.30;;;12.50;99.90;;;;;;6139601;22;87769;-70
2023/09/14 01:06:14;;;;;;;9.88;1.70;;;12.50;99.90;;;;;;6141586;22;86936;-69
2023/09/14 01:08:40;;;;;;;7.88;2.03;;;12.50;99.90;;;;;;6140825;22;87937;-68
2023/09/14 01:11:05;;;;;;;6.57;1.30;;;12.40;99.90;;;;;;6140198;22;88289;-71
2023/09/14 01:13:51;;;;;;;2.13;1.23;;;12.40;99.90;;;;;;6137536;22;91274;-71
2023/09/14 01:16:30;;;;;;;3.75;1.05;;;12.40;99.90;;;;;;6140290;22;87613;-70
2023/09/14 01:19:20;;;;;;;3.67;1.17;;;12.40;99.90;;;;;;6139869;22;90416;-70
2023/09/14 01:21:56;;;;;;;3.92;1.45;;;12.30;99.90;;;;;;6123367;22;93097;-71
2023/09/14 01:24:51;;;;;;;3.70;1.40;;;12.30;99.90;;;;;;6138172;22;90903;-71
2023/09/14 01:27:17;;;;;;;2.03;1.20;;;12.30;99.90;;;;;;6163590;22;88130;-69
2023/09/14 01:29:43;;;;;;;5.80;1.50;;;12.30;99.90;;;;;;6140393;22;87766;-68
2023/09/14 01:32:09;;;;;;;5.82;1.63;;;12.30;99.90;;;;;;6164565;22;90509;-71
2023/09/14 01:34:35;;;;;;;5.95;1.50;;;12.20;99.90;;;;;;6139692;22;88578;-68
2023/09/14 01:37:04;;;;;;;8.10;1.65;;;12.20;99.90;;;;;;6139862;22;88088;-68
2023/09/14 01:39:31;;;;;;;5.22;1.67;;;12.20;99.90;;;;;;6139581;22;88831;-72
2023/09/14 01:41:58;;;;;;;5.82;1.80;;;12.20;99.90;;;;;;6140343;22;87710;-70
2023/09/14 01:44:27;;;;;;;5.10;1.67;;;12.10;99.90;;;;;;6138502;22;90628;-71
2023/09/14 01:46:53;;;;;;;5.72;1.58;;;12.10;99.90;;;;;;6138673;22;87420;-68
2023/09/14 01:49:19;;;;;;;9.52;1.80;;;12.10;99.90;;;;;;6137649;22;88309;-68
2023/09/14 01:51:45;;;;;;;6.15;1.30;;;12.10;99.90;;;;;;6141064;22;88070;-70
2023/09/14 01:54:11;;;;;;;2.75;1.45;;;12.00;99.90;;;;;;6140404;22;88152;-71
2023/09/14 01:56:37;;;;;;;9.02;1.85;;;12.10;99.90;;;;;;6139001;22;86881;-71
2023/09/14 01:59:02;;;;;;;6.88;1.77;;;12.00;99.90;;;;;;6140066;22;87688;-71
2023/09/14 02:01:28;;;;;;;2.72;1.60;;;12.00;99.90;;;;;;6137116;22;91537;-71
2023/09/14 02:03:54;;;;;;;5.10;1.38;;;12.00;99.90;;;;;;6137929;22;89475;-69
2023/09/14 02:06:20;;;;;;;7.30;1.58;;;12.00;99.90;;;;;;6140291;22;87871;-68
2023/09/14 02:08:46;;;;;;;10.45;1.80;;;11.90;99.90;;;;;;6137775;22;90702;-69
2023/09/14 02:11:13;;;;;;;3.92;1.50;;;11.90;99.90;;;;;;6137694;22;91708;-69
2023/09/14 02:13:39;;;;;;;6.78;1.55;;;11.90;99.90;;;;;;6162821;22;91244;-68
2023/09/14 02:16:05;;;;;;;9.05;1.58;;;11.90;99.90;;;;;;6164687;22;87506;-68
2023/09/14 02:18:31;;;;;;;7.32;1.88;;;11.80;99.90;;;;;;6140964;22;87944;-70
2023/09/14 02:20:56;;;;;;;3.20;1.55;;;11.80;99.90;;;;;;6141141;22;87369;-69
2023/09/14 02:23:22;;;;;;;8.32;1.48;;;11.80;99.90;;;;;;6162750;22;90804;-68
2023/09/14 02:25:50;;;;;;;3.72;1.77;;;11.80;99.90;;;;;;6162890;22;87698;-69
2023/09/14 02:28:15;;;;;;;6.53;1.40;;;11.80;99.90;;;;;;6138674;22;89952;-70
2023/09/14 02:30:42;;;;;;;4.85;1.55;;;11.70;99.90;;;;;;6139355;22;90509;-69
2023/09/14 02:33:08;;;;;;;4.38;2.47;;;11.70;99.90;;;;;;6140133;22;88539;-69
2023/09/14 02:35:34;;;;;;;7.95;1.65;;;11.70;99.90;;;;;;6163327;22;88348;-71
2023/09/14 02:38:00;;;;;;;5.90;1.90;;;11.70;99.90;;;;;;6137634;22;90485;-70
2023/09/14 02:40:26;;;;;;;11.48;1.80;;;11.70;99.90;;;;;;6137483;22;91058;-71
2023/09/14 02:42:51;;;;;;;3.05;1.50;;;11.60;99.90;;;;;;6139057;22;87926;-69
2023/09/14 02:45:17;;;;;;;2.47;1.48;;;11.60;99.90;;;;;;6163872;22;87070;-69
2023/09/14 02:47:43;;;;;;;4.55;1.50;;;11.60;99.90;;;;;;6139956;22;87852;-71
2023/09/14 02:50:08;;;;;;;6.22;1.80;;;11.60;99.90;;;;;;6139663;22;89856;-71
2023/09/14 02:52:34;;;;;;;5.55;1.83;;;11.60;99.90;;;;;;6138352;22;88748;-69
2023/09/14 02:55:00;;;;;;;4.68;1.48;;;11.60;99.90;;;;;;6139637;22;87591;-69
2023/09/14 02:57:25;;;;;;;6.43;2.05;;;11.50;99.90;;;;;;6139199;22;90593;-69
2023/09/14 02:59:55;;;;;;;14.13;2.08;;;11.50;99.90;;;;;;6162876;22;91729;-71
2023/09/14 03:02:24;;;;;;;5.95;2.10;;;11.50;99.90;;;;;;6140004;22;87893;-70
2023/09/14 03:04:50;;;;;;;8.18;1.58;;;11.40;99.90;;;;;;6139371;22;87572;-69
2023/09/14 03:07:16;;;;;;;6.15;2.05;;;11.50;99.90;;;;;;6137149;22;89377;-68
2023/09/14 03:09:42;;;;;;;4.55;1.80;;;11.40;99.90;;;;;;6163620;22;91087;-70
2023/09/14 03:12:08;;;;;;;5.20;1.70;;;11.40;99.90;;;;;;6138016;22;87606;-68
2023/09/14 03:14:33;;;;;;;5.05;1.90;;;11.40;99.90;;;;;;6138313;22;87581;-69
2023/09/14 03:16:59;;;;;;;7.07;2.13;;;11.40;99.90;;;;;;6163238;22;90312;-71
2023/09/14 03:19:25;;;;;;;12.05;3.22;;;11.30;99.90;;;;;;6137808;22;91372;-68
2023/09/14 03:21:50;;;;;;;15.43;4.38;;;11.30;99.90;;;;;;6140716;22;87438;-68
2023/09/14 03:24:16;;;;;;;14.40;3.88;;;11.30;99.90;;;;;;6162419;22;87282;-71
2023/09/14 03:26:42;;;;;;;12.55;3.63;;;11.40;99.90;;;;;;6137382;22;88616;-70
2023/09/14 03:29:08;;;;;;;13.70;4.35;;;11.40;99.90;;;;;;6139292;22;88543;-70
2023/09/14 03:31:35;;;;;;;10.38;4.18;;;11.40;99.90;;;;;;6140555;22;88000;-70
2023/09/14 03:34:00;;;;;;;9.82;3.53;;;11.40;99.90;;;;;;6140762;22;86904;-70
2023/09/14 03:36:27;;;;;;;13.05;3.45;;;11.50;99.90;;;;;;6138834;22;90469;-70
2023/09/14 03:38:53;;;;;;;13.35;4.50;;;11.50;99.90;;;;;;6137648;22;91336;-70
2023/09/14 03:41:19;;;;;;;8.10;3.58;;;11.50;99.90;;;;;;6138250;22;90499;-71
2023/09/14 03:43:44;;;;;;;7.80;3.60;;;11.50;99.90;;;;;;6139328;22;87675;-71
2023/09/14 03:46:13;;;;;;;6.88;4.10;;;11.50;99.90;;;;;;6139817;22;87626;-69
2023/09/14 03:48:39;;;;;;;14.23;3.33;;;11.60;99.90;;;;;;6138855;22;87490;-68
2023/09/14 03:51:04;;;;;;;9.77;3.20;;;11.60;99.90;;;;;;6140831;22;87953;-69
2023/09/14 03:53:30;;;;;;;9.25;3.60;;;11.60;99.90;;;;;;6141402;22;87850;-71
2023/09/14 03:56:08;;;;;;;15.93;4.63;;;11.60;99.90;;;;;;6140845;22;87498;-68
2023/09/14 03:58:33;;;;;;;13.15;4.57;;;11.60;99.90;;;;;;6139969;22;88370;-70
2023/09/14 04:00:59;;;;;;;15.25;5.47;;;11.60;99.90;;;;;;6141120;22;87934;-69
2023/09/14 04:03:25;;;;;;;11.43;4.75;;;11.60;99.90;;;;;;6141759;22;87430;-70
2023/09/14 04:05:50;;;;;;;12.05;4.50;;;11.70;99.90;;;;;;6140560;22;88502;-69
2023/09/14 04:08:16;;;;;;;11.35;4.18;;;11.70;99.90;;;;;;6138808;22;91064;-71
2023/09/14 04:10:42;;;;;;;21.13;5.95;;;11.70;99.90;;;;;;6139454;22;87794;-70
2023/09/14 04:13:33;;;;;;;7.72;4.30;;;11.70;99.90;;;;;;6139699;22;87809;-69
2023/09/14 04:16:01;;;;;;;12.27;5.35;;;11.60;99.90;;;;;;6164244;22;90286;-69
2023/09/14 04:18:27;;;;;;;17.08;5.70;;;11.60;99.90;;;;;;6140000;22;93429;-68
2023/09/14 04:20:54;;;;;;;11.70;4.95;;;11.60;99.90;;;;;;6138338;22;91102;-67
2023/09/14 04:23:20;;;;;;;11.65;5.88;;;11.60;99.90;;;;;;6140651;22;86637;-68
2023/09/14 04:25:49;;;;;;;11.63;4.55;;;11.60;99.90;;;;;;6136686;22;90674;-70
2023/09/14 04:28:16;;;;;;;19.17;5.05;;;11.60;99.90;;;;;;6139017;22;92040;-70
2023/09/14 04:30:51;;;;;;;13.75;4.80;;;11.60;99.90;;;;;;6138577;22;90982;-68
2023/09/14 04:33:17;;;;;;;9.98;4.65;;;11.50;99.90;;;;;;6138430;22;87763;-68
2023/09/14 04:35:44;;;;;;;10.90;4.70;;;11.50;99.90;;;;;;6138742;22;89852;-69
2023/09/14 04:38:10;;;;;;;9.35;4.32;;;11.50;99.90;;;;;;6141021;22;88065;-68
2023/09/14 04:40:43;;;;;;;9.80;5.10;;;11.50;99.90;;;;;;6164012;22;91012;-70
2023/09/14 04:43:11;;;;;;;6.60;4.43;;;11.50;99.90;;;;;;6138973;22;87899;-68
2023/09/14 04:45:37;;;;;;;11.88;4.70;;;11.50;99.90;;;;;;6139677;22;90383;-67
2023/09/14 04:48:03;;;;;;;13.02;4.90;;;11.50;99.90;;;;;;6140788;22;87747;-68
2023/09/14 04:50:29;;;;;;;9.45;5.20;;;11.50;99.90;;;;;;6120389;22;90846;-69
2023/09/14 04:52:55;;;;;;;10.05;5.25;;;11.50;99.90;;;;;;6133116;22;87603;-69
2023/09/14 04:55:21;;;;;;;16.13;6.15;;;11.40;99.90;;;;;;6113560;22;88310;-69
2023/09/14 04:57:47;;;;;;;13.05;5.60;;;11.50;99.90;;;;;;6141892;22;88838;-68
2023/09/14 05:00:13;;;;;;;10.18;5.93;;;11.40;99.90;;;;;;6140367;22;87627;-70
2023/09/14 05:02:39;;;;;;;14.65;5.22;;;11.40;99.90;;;;;;6139745;22;87789;-67
2023/09/14 05:05:06;;;;;;;7.22;4.57;;;11.40;99.90;;;;;;6140583;22;87950;-68
2023/09/14 05:07:32;;;;;;;8.63;5.13;;;11.40;99.90;;;;;;6130894;22;91894;-70
2023/09/14 05:09:58;;;;;;;15.05;5.30;;;11.40;99.90;;;;;;6134925;22;91457;-68
2023/09/14 05:12:24;;;;;;;11.98;5.20;;;11.30;99.90;;;;;;6141494;22;86907;-71
2023/09/14 05:14:49;;;;;;;12.00;5.20;;;11.30;99.90;;;;;;6137468;22;87814;-70
2023/09/14 05:17:15;;;;;;;10.15;5.72;;;11.30;99.90;;;;;;6118111;22;88240;-70
2023/09/14 05:19:42;;;;;;;11.45;5.60;;;11.30;99.90;;;;;;6117022;22;88800;-71
2023/09/14 05:22:09;;;;;;;19.02;6.03;;;11.30;99.90;;;;;;6134947;22;87971;-68
2023/09/14 05:24:35;;;;;;;13.27;6.38;;;11.30;99.90;;;;;;6141189;22;87566;-70
2023/09/14 05:27:01;;;;;;;11.48;5.75;;;11.30;99.90;;;;;;6140514;22;87718;-71
2023/09/14 05:29:26;;;;;;;13.95;6.47;;;11.30;99.90;;;;;;6138744;22;90884;-69
2023/09/14 05:31:52;;;;;;;12.65;5.03;;;11.30;99.90;;;;;;6140785;22;87766;-70
2023/09/14 05:34:18;;;;;;;19.50;5.55;;;11.30;99.90;;;;;;6138038;22;87665;-71
2023/09/14 05:36:44;;;;;;;10.48;5.45;;;11.30;99.90;;;;;;6140247;22;90750;-68
2023/09/14 05:39:09;;;;;;;24.23;7.07;;;11.30;99.90;;;;;;6141243;22;88323;-68
2023/09/14 05:41:35;;;;;;;12.75;5.93;;;11.40;99.90;;;;;;6141682;22;87586;-68
2023/09/14 05:44:05;;;;;;;9.45;4.82;;;11.40;99.90;;;;;;6140489;22;88676;-71
2023/09/14 05:46:32;;;;;;;10.68;5.03;;;11.40;99.90;;;;;;6138688;22;89436;-69
2023/09/14 05:48:57;;;;;;;9.10;4.88;;;11.40;99.90;;;;;;6165566;22;91474;-68
2023/09/14 05:51:25;;;;;;;16.95;5.40;;;11.50;99.90;;;;;;6142122;22;87429;-70
2023/09/14 05:53:51;;;;;;;8.43;5.38;;;11.50;99.90;;;;;;6141686;22;87596;-71
2023/09/14 05:56:17;;;;;;;11.23;5.90;;;11.50;99.90;;;;;;6140124;22;87929;-68
2023/09/14 05:58:42;;;;;;;11.27;5.95;;;11.60;99.90;;;;;;6138230;22;91040;-72
2023/09/14 06:01:08;;;;;;;15.27;6.25;;;11.60;99.90;;;;;;6140172;22;86992;-70
2023/09/14 06:03:34;;;;;;;12.55;5.47;;;11.60;99.90;;;;;;6164910;22;89516;-68
2023/09/14 06:06:00;;;;;;;13.48;5.60;;;11.70;99.90;;;;;;6141322;22;87710;-71
2023/09/14 06:08:25;;;;;;;11.18;5.53;;;11.80;99.90;;;;;;6163162;22;91672;-69
2023/09/14 06:10:51;;;;;;;14.23;5.50;;;11.80;99.90;;;;;;6140226;22;87770;-70
2023/09/14 06:13:18;;;;;;;11.30;5.35;;;11.80;99.90;;;;;;6140922;22;87523;-68
2023/09/14 06:15:43;;;;;;;13.00;5.63;;;11.90;99.90;;;;;;6142315;22;87536;-69
2023/09/14 06:18:09;;;;;;;10.20;5.65;;;11.90;99.90;;;;;;6165656;22;91106;-69
2023/09/14 06:20:35;;;;;;;15.85;5.30;;;12.00;99.90;;;;;;6140529;22;88151;-70
2023/09/14 06:23:01;;;;;;;13.85;5.47;;;12.00;99.90;;;;;;6141810;22;87603;-69
2023/09/14 06:25:27;;;;;;;6.70;4.15;;;12.10;99.90;;;;;;6139848;22;91237;-67
2023/09/14 06:27:53;;;;;;;9.90;4.38;;;12.10;99.90;;;;;;6139475;22;90468;-69
2023/09/14 06:30:19;;;;;;;7.05;4.50;;;12.20;99.90;;;;;;6139988;22;87761;-69
2023/09/14 06:32:44;;;;;;;8.73;4.45;;;12.30;99.90;;;;;;6137255;22;90409;-69
2023/09/14 06:35:10;;;;;;;12.90;4.53;;;12.40;99.90;;;;;;6139549;22;88611;-69
2023/09/14 06:37:36;;;;;;;6.97;4.78;;;12.40;99.90;;;;;;6138988;22;87704;-69
2023/09/14 06:40:12;;;;;;;5.97;4.13;;;12.40;99.90;;;;;;6139284;22;87822;-72
2023/09/14 06:42:37;;;;;;;6.75;4.47;;;12.50;99.90;;;;;;6139582;22;87712;-68
2023/09/14 06:45:04;;;;;;;8.20;4.90;;;12.60;99.90;;;;;;6141126;22;88218;-70
2023/09/14 06:47:30;;;;;;;8.45;5.10;;;12.60;99.90;;;;;;6140150;22;87626;-70
2023/09/14 06:49:58;;;;;;;12.07;5.45;;;12.70;99.90;;;;;;6138307;22;87115;-70
2023/09/14 06:52:24;;;;;;;9.23;5.10;;;12.80;99.90;;;;;;6141042;22;87615;-68
2023/09/14 06:54:49;;;;;;;9.65;5.80;;;12.90;99.90;;;;;;6141528;22;88714;-69
2023/09/14 06:57:16;;;;;;;13.07;5.40;;;13.00;99.90;;;;;;6138117;22;88632;-68
2023/09/14 06:59:42;;;;;;;9.60;5.63;;;13.00;99.90;;;;;;6139786;22;87913;-71
2023/09/14 07:02:07;;;;;;;11.00;5.70;;;13.10;99.90;;;;;;6135737;22;87685;-69
2023/09/14 07:04:42;;;;;;;8.45;6.03;;;13.20;99.90;;;;;;6149773;22;88171;-70
2023/09/14 07:07:09;;;;;;;17.40;7.18;;;13.30;99.90;;;;;;6165526;22;91172;-68
2023/09/14 07:09:35;;;;;;;12.52;7.10;;;13.40;99.90;;;;;;6140498;22;87519;-71
2023/09/14 07:12:02;;;;;;;11.23;6.50;;;13.50;99.90;;;;;;6139861;22;87759;-70
2023/09/14 07:14:28;;;;;;;13.55;7.40;;;13.50;99.90;;;;;;6138846;22;88311;-68
2023/09/14 07:16:54;;;;;;;11.60;8.07;;;13.60;99.90;;;;;;6138974;22;87789;-70
2023/09/14 07:19:19;;;;;;;15.77;8.27;;;13.70;99.90;;;;;;6136982;22;87486;-69
2023/09/14 07:21:45;;;;;;;13.98;8.50;;;13.80;99.90;;;;;;6138382;22;88788;-69
2023/09/14 07:24:10;;;;;;;14.95;9.50;;;13.90;99.90;;;;;;6139685;22;89090;-70
2023/09/14 07:26:58;;;;;;;14.45;8.38;;;13.90;99.90;;;;;;6115944;22;89064;-68
2023/09/14 07:29:22;;;;;;;15.80;9.48;;;14.00;99.90;;;;;;6129340;22;87591;-70
2023/09/14 07:31:50;;;;;;;16.00;8.70;;;14.10;99.90;;;;;;6126825;22;89820;-70
2023/09/14 07:34:15;;;;;;;16.15;9.63;;;14.20;99.90;;;;;;6112641;22;89173;-67
2023/09/14 07:36:45;;;;;;;16.00;8.90;;;14.30;99.90;;;;;;6138510;22;88025;-68
2023/09/14 07:39:11;;;;;;;16.33;9.82;;;14.30;99.90;;;;;;6136303;22;87133;-70
2023/09/14 07:41:36;;;;;;;17.45;9.70;;;14.40;99.90;;;;;;6138176;22;88514;-71
2023/09/14 07:44:02;;;;;;;15.38;9.48;;;14.50;99.90;;;;;;6164318;22;89997;-69
2023/09/14 07:46:28;;;;;;;14.80;9.93;;;14.60;99.90;;;;;;6139045;22;88807;-70
2023/09/14 07:48:53;;;;;;;13.52;8.90;;;14.70;99.90;;;;;;6141520;22;87579;-68
2023/09/14 07:51:19;;;;;;;18.35;9.43;;;14.80;99.90;;;;;;6137428;22;87558;-71
2023/09/14 07:53:45;;;;;;;19.08;10.63;;;14.80;99.90;;;;;;6137685;22;88219;-68
2023/09/14 07:56:10;;;;;;;15.52;8.60;;;14.90;99.90;;;;;;6163104;22;91120;-68
2023/09/14 07:58:36;;;;;;;12.75;8.95;;;15.00;99.90;;;;;;6137665;22;87896;-68
2023/09/14 08:01:01;;;;;;;17.27;9.93;;;15.10;99.90;;;;;;6139124;22;87465;-67
2023/09/14 08:03:30;;;;;;;15.50;10.45;;;15.20;99.90;;;;;;6138118;22;86918;-69
2023/09/14 08:05:56;;;;;;;14.00;9.85;;;15.30;99.90;;;;;;6135691;22;88040;-68
2023/09/14 08:08:22;;;;;;;15.55;10.40;;;15.40;99.90;;;;;;6134066;22;88133;-70
2023/09/14 08:10:53;;;;;;;15.40;9.90;;;15.50;99.90;;;;;;6133194;22;91274;-70
2023/09/14 08:13:19;;;;;;;14.93;9.75;;;15.60;99.90;;;;;;6136082;22;88055;-70
2023/09/14 08:15:45;;;;;;;16.10;9.48;;;15.70;99.90;;;;;;6138545;22;88691;-69
2023/09/14 08:18:11;;;;;;;16.30;10.82;;;15.80;99.90;;;;;;6140633;22;87901;-71
2023/09/14 08:20:44;;;;;;;17.50;9.88;;;15.90;99.90;;;;;;6138359;22;87737;-69
2023/09/14 08:23:12;;;;;;;16.23;10.45;;;16.00;99.90;;;;;;6138817;22;87925;-70
2023/09/14 08:25:43;;;;;;;14.65;9.65;;;16.10;99.90;;;;;;6129398;22;91004;-70
2023/09/14 08:28:10;;;;;;;14.63;9.80;;;16.20;99.90;;;;;;6112214;22;86881;-70
2023/09/14 08:30:37;;;;;;;15.32;9.82;;;16.30;99.90;;;;;;6139433;22;90188;-69
2023/09/14 08:33:03;;;;;;;13.73;9.15;;;16.40;99.90;;;;;;6137742;22;88580;-70
2023/09/14 08:35:31;;;;;;;14.45;9.85;;;16.50;99.90;;;;;;6136746;22;89297;-71
2023/09/14 08:37:57;;;;;;;14.73;9.77;;;16.60;99.90;;;;;;6139540;22;87757;-69
2023/09/14 08:40:33;;;;;;;15.93;9.85;;;16.70;99.90;;;;;;6136410;22;88156;-68
2023/09/14 08:43:33;;;;;;;14.48;9.73;;;16.90;99.90;;;;;;6140660;22;88710;-70
2023/09/14 08:46:11;;;;;;;16.38;9.23;;;17.00;99.90;;;;;;6136322;22;92385;-70
2023/09/14 08:48:45;;;;;;;13.27;8.45;;;17.20;99.90;;;;;;6138237;22;87541;-70
2023/09/14 08:54:26;;;;;;;11.18;8.35;;;17.40;99.90;;;;;;6130169;22;87733;-70
2023/09/14 08:56:52;;;;;;;12.50;7.78;;;17.60;99.90;;;;;;6135900;22;88550;-70
2023/09/14 08:59:20;;;;;;;14.43;8.60;;;17.70;99.90;;;;;;6119568;22;87574;-71
2023/09/14 09:01:48;;;;;;;14.57;9.05;;;17.80;99.90;;;;;;6115476;22;88537;-71
2023/09/14 09:04:14;;;;;;;14.60;8.85;;;17.90;99.50;;;;;;6137761;22;87938;-69
2023/09/14 09:06:42;;;;;;;23.60;8.82;;;18.10;99.70;;;;;;6139965;22;88060;-69
2023/09/14 09:09:10;;;;;;;10.32;7.95;;;18.20;99.90;;;;;;6138890;22;87911;-72
2023/09/14 09:11:38;;;;;;;12.18;8.73;;;18.40;99.90;;;;;;6133920;22;88997;-72
2023/09/14 09:14:04;;;;;;;14.20;8.18;;;18.50;99.90;;;;;;6132402;22;88805;-71
2023/09/14 09:16:32;;;;;;;15.40;9.07;;;18.70;99.90;;;;;;6135214;22;88041;-69
2023/09/14 09:19:09;;;;;;;12.13;8.10;;;18.90;98.40;;;;;;6141580;22;87590;-70
2023/09/14 09:21:50;;;;;;;11.45;8.90;;;19.00;98.80;;;;;;6136076;22;91753;-71
2023/09/14 09:24:26;;;;;;;13.75;8.70;;;19.20;98.80;;;;;;6133419;22;89014;-69
2023/09/14 09:26:56;;;;;;;12.20;8.15;;;19.40;98.20;;;;;;6134653;22;88834;-69
2023/09/14 09:29:23;;;;;;;10.65;7.85;;;19.60;98.30;;;;;;6133028;22;88090;-69
2023/09/14 09:31:57;;;;;;;12.05;8.60;;;19.70;95.90;;;;;;6134658;22;87570;-70
2023/09/14 09:34:28;;;;;;;11.02;8.45;;;19.90;96.40;;;;;;6134454;22;87932;-70
2023/09/14 09:37:03;;;;;;;10.80;7.45;;;20.10;97.00;;;;;;6139795;22;89131;-67
2023/09/14 09:39:55;;;;;;;10.77;6.85;;;20.30;96.90;;;;;;6137662;22;87938;-68
2023/09/14 09:42:23;;;;;;;10.95;6.78;;;20.50;96.50;;;;;;6132346;22;89993;-71
2023/09/14 09:44:54;;;;;;;10.30;6.93;;;20.80;95.80;;;;;;6136163;22;86980;-67
2023/09/14 09:47:32;;;;;;;9.55;7.40;;;20.90;95.90;;;;;;6132969;22;87551;-68
2023/09/14 09:50:01;;;;;;;12.80;6.63;;;21.10;92.00;;;;;;6132794;22;88061;-68
2023/09/14 09:52:27;;;;;;;8.05;5.10;;;21.10;90.90;;;;;;6136988;22;88611;-69
2023/09/14 09:54:53;;;;;;;8.75;6.13;;;21.20;92.10;;;;;;6141053;22;88289;-70
2023/09/14 09:57:19;;;;;;;8.23;6.43;;;21.40;94.10;;;;;;6139289;22;88681;-70
2023/09/14 09:59:48;;;;;;;11.38;7.80;;;21.50;93.60;;;;;;6139049;22;87423;-70
2023/09/14 10:02:15;;;;;;;11.90;7.43;;;21.80;91.50;;;;;;6140938;22;87584;-69
2023/09/14 10:04:52;;;;;;;12.70;7.28;;;21.90;91.10;;;;;;6140044;22;88313;-68
2023/09/14 10:07:22;;;;;;;11.40;6.55;;;22.20;91.70;;;;;;6138785;22;88008;-71
2023/09/14 10:09:51;;;;;;;8.25;5.60;;;22.40;91.80;;;;;;6140245;22;86894;-70
2023/09/14 10:12:18;;;;;;;7.40;5.07;;;22.60;92.60;;;;;;6136403;22;90163;-71
2023/09/14 10:14:46;;;;;;;9.10;6.70;;;22.90;93.20;;;;;;6116241;22;90604;-71
2023/09/14 10:17:20;;;;;;;10.05;5.88;;;23.10;87.40;;;;;;6122893;22;91287;-71
2023/09/14 10:19:47;;;;;;;15.60;7.15;;;23.20;89.60;;;;;;6128475;22;87722;-69
2023/09/14 10:22:16;;;;;;;10.20;5.88;;;23.40;90.20;;;;;;6111996;22;88187;-71
2023/09/14 10:24:43;;;;;;;10.48;4.97;;;23.50;88.50;;;;;;6140043;22;87649;-72
2023/09/14 10:27:09;;;;;;;10.32;5.95;;;23.80;90.00;;;;;;6139944;22;88659;-69
2023/09/14 10:29:39;;;;;;;5.45;3.88;;;23.90;86.10;;;;;;6139255;22;87644;-71
2023/09/14 10:32:06;;;;;;;7.95;5.07;;;24.10;86.00;;;;;;6140564;22;87530;-72
2023/09/14 10:34:36;;;;;;;10.20;5.30;;;24.30;86.60;;;;;;6138796;22;87272;-70
2023/09/14 10:37:03;;;;;;;8.38;5.00;;;24.50;82.80;;;;;;6142511;22;88021;-72
2023/09/14 10:39:28;;;;;;;9.82;5.72;;;24.60;80.70;;;;;;6141969;22;87875;-71
2023/09/14 10:41:54;;;;;;;7.15;4.45;;;24.70;77.30;;;;;;6142271;22;88927;-73
2023/09/14 10:44:20;;;;;;;6.88;4.40;;;24.80;79.90;;;;;;6143352;22;87793;-70
2023/09/14 10:46:48;;;;;;;7.35;5.03;;;25.00;79.60;;;;;;6131871;22;90154;-71
2023/09/14 10:49:17;;;;;;;5.85;4.78;;;24.90;73.50;;;;;;6114085;22;87942;-73
2023/09/14 10:51:45;;;;;;;7.35;4.82;;;24.90;79.00;;;;;;6144966;22;87614;-72
2023/09/14 10:54:10;;;;;;;6.72;4.32;;;25.10;78.30;;;;;;6114667;22;90072;-71
2023/09/14 10:56:36;;;;;;;4.90;3.00;;;25.30;76.50;;;;;;6134253;22;88601;-72
2023/09/14 10:59:09;;;;;;;5.85;3.13;;;25.50;80.20;;;;;;6142268;22;87163;-70
2023/09/14 11:01:46;;;;;;;;;;;25.80;80.30;;;;;;6145487;22;87694;-70
2023/09/14 11:04:15;;;;;;;7.50;3.17;;;26.00;80.80;;;;;;6145642;22;87977;-72
2023/09/14 11:06:52;;;;;;;5.57;3.47;;;26.30;73.60;;;;;;6143517;22;90274;-70
2023/09/14 11:09:22;;;;;;;7.47;4.13;;;26.30;69.60;;;;;;6144943;22;87972;-69
2023/09/14 11:11:50;;;;;;;7.65;4.05;;;26.30;74.60;;;;;;6143429;22;87357;-70
2023/09/14 11:14:17;;;;;;;6.32;2.55;;;26.50;68.80;;;;;;6127863;22;88865;-70
2023/09/14 11:16:49;;;;;;;5.78;3.25;;;26.50;77.10;;;;;;6122966;22;87713;-72
2023/09/14 11:19:31;;;;;;;4.35;3.05;;;26.60;69.60;;;;;;6144620;22;87410;-71
2023/09/14 11:22:27;;;;;;;3.72;2.40;;;26.70;70.60;;;;;;6168550;22;90296;-71
2023/09/14 11:24:52;;;;;;;5.15;3.10;;;26.90;66.10;;;;;;6143939;22;91943;-72
2023/09/14 11:27:19;;;;;;;9.70;3.90;;;27.10;70.40;;;;;;6114268;22;90432;-68
2023/09/14 11:29:45;;;;;;;4.07;2.20;;;27.40;65.80;;;;;;6136499;22;87763;-68
2023/09/14 11:32:19;;;;;;;3.53;2.35;;;27.50;70.30;;;;;;6143177;22;88392;-71
2023/09/14 11:34:45;;;;;;;6.85;2.53;;;27.80;69.30;;;;;;6144305;22;90943;-70
2023/09/14 11:37:15;;;;;;;6.22;2.72;;;28.10;70.70;;;;;;6142006;22;87712;-71
2023/09/14 11:39:41;;;;;;;3.08;1.98;;;28.30;66.90;;;;;;6142220;22;87921;-73
2023/09/14 11:42:06;;;;;;;3.67;2.03;;;28.50;70.10;;;;;;6143298;22;87735;-73
2023/09/14 11:44:49;;;;;;;6.85;2.53;;;28.70;69.70;;;;;;6141299;22;90133;-70
2023/09/14 11:47:16;;;;;;;4.75;2.10;;;28.90;70.10;;;;;;6137219;22;91383;-70
2023/09/14 11:49:44;;;;;;;10.50;3.50;;;29.10;66.90;;;;;;6141199;22;87184;-66
2023/09/14 11:52:11;;;;;;;4.10;2.30;;;29.10;61.10;;;;;;6140932;22;87701;-69
2023/09/14 11:54:37;;;;;;;3.22;1.55;;;29.00;62.40;;;;;;6142376;22;87841;-73
2023/09/14 11:57:07;;;;;;;4.47;1.95;;;28.90;63.90;;;;;;6165523;22;91555;-69
2023/09/14 11:59:33;;;;;;;5.10;2.33;;;28.80;58.00;;;;;;6143894;22;87552;-69
2023/09/14 12:02:01;;;;;;;4.40;1.70;;;28.60;56.70;;;;;;6166600;22;91157;-70
2023/09/14 12:04:30;;;;;;;3.53;2.13;;;28.50;60.90;;;;;;6142854;22;89267;-73
2023/09/14 12:07:21;;;;;;;3.92;1.40;;;28.40;57.10;;;;;;6143568;22;87792;-72
2023/09/14 12:09:43;;;;;;;2.85;1.50;;;28.40;60.30;;;;;;6143737;22;87637;-67
2023/09/14 12:12:23;;;;;;;2.60;1.65;;;28.40;61.20;;;;;;6143799;22;88034;-68
2023/09/14 12:14:50;;;;;;;4.22;1.98;;;28.60;62.40;;;;;;6144272;22;86932;-71
2023/09/14 12:17:20;;;;;;;4.13;1.88;;;28.40;56.30;;;;;;6115168;22;90366;-70
2023/09/14 12:19:56;;;;;;;3.95;1.38;;;28.30;57.00;;;;;;6137848;22;87804;-69
2023/09/14 12:22:24;;;;;;;3.88;1.20;;;28.40;62.50;;;;;;6118265;22;88746;-72
2023/09/14 12:24:51;;;;;;;3.65;1.50;;;28.60;64.40;;;;;;6143847;22;87796;-72
2023/09/14 12:27:18;;;;;;;3.42;1.80;;;28.90;61.20;;;;;;6143069;22;88200;-72
2023/09/14 12:29:45;;;;;;;2.45;1.27;;;28.90;57.10;;;;;;6137479;22;87541;-70
2023/09/14 12:32:13;;;;;;;12.00;2.05;;;29.10;63.30;;;;;;6165787;22;90018;-70
2023/09/14 12:34:39;;;;;;;1.77;1.10;;;29.30;62.50;;;;;;6139503;22;90271;-68
2023/09/14 12:37:06;;;;;;;3.97;1.55;;;29.60;64.10;;;;;;6163363;22;90850;-74
2023/09/14 12:39:32;;;;;;;2.65;1.77;;;29.70;56.60;;;;;;6141477;22;86792;-70
2023/09/14 12:42:01;;;;;;;3.63;1.15;;;29.70;53.10;;;;;;6137826;22;89899;-71
2023/09/14 12:44:27;;;;;;;1.95;1.00;;;29.60;56.90;;;;;;6138960;22;91254;-72
2023/09/14 12:46:53;;;;;;;3.20;1.70;;;29.70;57.20;;;;;;6138460;22;91187;-71
2023/09/14 12:49:20;;;;;;;2.40;1.00;;;29.90;58.80;;;;;;6137140;22;93609;-71